createdAt,value
2017-10-25T00:00:49.360Z,0
2017-10-25T00:01:57.444Z,0
2017-10-25T00:03:05.531Z,0
2017-10-25T00:04:13.626Z,0
2017-10-25T00:05:21.716Z,0
2017-10-25T00:06:29.803Z,0
2017-10-25T00:07:37.885Z,0
2017-10-25T00:08:45.986Z,0
2017-10-25T00:09:54.065Z,0
2017-10-25T00:11:02.153Z,0
2017-10-25T00:12:10.237Z,0
2017-10-25T00:13:18.324Z,0
2017-10-25T00:14:26.413Z,0
2017-10-25T00:15:34.495Z,0
2017-10-25T00:16:42.582Z,0
2017-10-25T00:17:50.676Z,0
2017-10-25T00:18:58.762Z,0
2017-10-25T00:20:06.921Z,0
2017-10-25T00:21:14.935Z,0
2017-10-25T00:22:23.024Z,0
2017-10-25T00:23:31.105Z,0
2017-10-25T00:24:39.189Z,0
2017-10-25T00:25:47.282Z,0
2017-10-25T00:26:55.363Z,0
2017-10-25T00:28:03.449Z,0
2017-10-25T00:29:11.535Z,0
2017-10-25T00:30:19.622Z,0
2017-10-25T00:31:27.708Z,0
2017-10-25T00:32:35.794Z,0
2017-10-25T00:33:43.887Z,0
2017-10-25T00:34:51.986Z,0
2017-10-25T00:36:00.053Z,0
2017-10-25T00:37:08.141Z,0
2017-10-25T00:38:16.225Z,0
2017-10-25T00:39:24.312Z,0
2017-10-25T00:40:32.401Z,0
2017-10-25T00:41:40.485Z,0
2017-10-25T00:42:48.576Z,0
2017-10-25T00:43:56.660Z,0
2017-10-25T00:45:04.746Z,0
2017-10-25T00:46:12.854Z,0
2017-10-25T00:47:20.918Z,0
2017-10-25T00:48:29.003Z,0
2017-10-25T00:49:37.093Z,0
2017-10-25T00:50:45.178Z,0
2017-10-25T00:51:53.283Z,0
2017-10-25T00:53:01.350Z,0
2017-10-25T00:54:09.436Z,0
2017-10-25T00:55:17.520Z,0
2017-10-25T00:56:25.609Z,0
2017-10-25T00:57:33.699Z,0
2017-10-25T00:58:41.780Z,0
2017-10-25T00:59:49.873Z,0
2017-10-25T01:00:57.954Z,0
2017-10-25T01:02:06.039Z,0
2017-10-25T01:03:14.139Z,0
2017-10-25T01:04:22.211Z,0
2017-10-25T01:05:30.298Z,0
2017-10-25T01:06:38.382Z,0
2017-10-25T01:07:46.469Z,0
2017-10-25T01:08:54.560Z,0
2017-10-25T01:10:02.644Z,0
2017-10-25T01:11:10.811Z,0
2017-10-25T01:12:18.814Z,0
2017-10-25T01:13:26.900Z,0
2017-10-25T01:14:34.991Z,0
2017-10-25T01:15:43.088Z,0
2017-10-25T01:16:51.158Z,0
2017-10-25T01:17:59.247Z,0
2017-10-25T01:19:07.343Z,0
2017-10-25T01:20:15.419Z,0
2017-10-25T01:21:23.512Z,0
2017-10-25T01:22:31.592Z,0
2017-10-25T01:23:39.678Z,0
2017-10-25T01:24:47.763Z,0
2017-10-25T01:25:55.850Z,0
2017-10-25T01:27:03.956Z,0
2017-10-25T01:28:12.035Z,0
2017-10-25T01:29:20.110Z,0
2017-10-25T01:30:28.193Z,0
2017-10-25T01:31:36.282Z,0
2017-10-25T01:32:44.378Z,0
2017-10-25T01:33:52.462Z,0
2017-10-25T01:35:00.547Z,0
2017-10-25T01:36:08.637Z,0
2017-10-25T01:37:16.721Z,0
2017-10-25T01:38:24.812Z,0
2017-10-25T01:39:32.899Z,0
2017-10-25T01:40:40.983Z,0
2017-10-25T01:41:49.178Z,0
2017-10-25T01:42:57.154Z,0
2017-10-25T01:44:05.241Z,0
2017-10-25T01:45:13.329Z,0
2017-10-25T01:46:21.411Z,0
2017-10-25T01:47:29.497Z,0
2017-10-25T01:48:37.584Z,0
2017-10-25T01:49:45.667Z,0
2017-10-25T01:50:53.755Z,0
2017-10-25T01:52:01.842Z,0
2017-10-25T01:53:09.925Z,0
2017-10-25T01:54:18.013Z,0
2017-10-25T01:55:26.099Z,0
2017-10-25T01:56:34.204Z,0
2017-10-25T01:57:42.303Z,0
2017-10-25T01:58:50.357Z,0
2017-10-25T01:59:58.441Z,0
2017-10-25T02:01:06.546Z,0
2017-10-25T02:02:14.635Z,0
2017-10-25T02:03:22.717Z,0
2017-10-25T02:04:30.803Z,0
2017-10-25T02:05:38.888Z,0
2017-10-25T02:06:46.977Z,0
2017-10-25T02:07:55.059Z,0
2017-10-25T02:09:03.156Z,0
2017-10-25T02:10:11.234Z,0
2017-10-25T02:11:19.319Z,0
2017-10-25T02:12:27.426Z,0
2017-10-25T02:13:35.508Z,0
2017-10-25T02:14:43.596Z,0
2017-10-25T02:15:51.752Z,0
2017-10-25T02:16:59.769Z,0
2017-10-25T02:18:07.856Z,0
2017-10-25T02:19:15.953Z,0
2017-10-25T02:20:24.045Z,0
2017-10-25T02:21:32.116Z,0
2017-10-25T02:22:40.197Z,0
2017-10-25T02:23:48.286Z,0
2017-10-25T02:24:56.369Z,0
2017-10-25T02:26:04.454Z,0
2017-10-25T02:27:12.545Z,0
2017-10-25T02:28:20.627Z,0
2017-10-25T02:29:28.713Z,0
2017-10-25T02:30:36.800Z,0
2017-10-25T02:31:44.884Z,0
2017-10-25T02:32:52.971Z,0
2017-10-25T02:34:01.055Z,0
2017-10-25T02:35:09.148Z,0
2017-10-25T02:36:17.227Z,0
2017-10-25T02:37:25.313Z,0
2017-10-25T02:38:33.400Z,0
2017-10-25T02:39:41.495Z,0
2017-10-25T02:40:49.580Z,0
2017-10-25T02:41:57.679Z,0
2017-10-25T02:43:05.762Z,0
2017-10-25T02:44:13.846Z,0
2017-10-25T02:45:21.933Z,0
2017-10-25T02:46:30.018Z,0
2017-10-25T02:47:38.110Z,0
2017-10-25T02:48:46.198Z,0
2017-10-25T02:49:54.288Z,0
2017-10-25T02:51:02.369Z,0
2017-10-25T02:52:10.457Z,0
2017-10-25T02:53:18.540Z,0
2017-10-25T02:54:26.628Z,0
2017-10-25T02:55:34.712Z,0
2017-10-25T02:56:42.808Z,0
2017-10-25T02:57:50.890Z,0
2017-10-25T02:58:58.976Z,0
2017-10-25T03:00:07.057Z,0
2017-10-25T03:01:15.147Z,0
2017-10-25T03:02:23.227Z,0
2017-10-25T03:03:31.315Z,0
2017-10-25T03:04:39.399Z,0
2017-10-25T03:05:47.485Z,0
2017-10-25T03:06:55.569Z,0
2017-10-25T03:08:03.654Z,0
2017-10-25T03:09:11.741Z,0
2017-10-25T03:10:19.823Z,0
2017-10-25T03:11:27.911Z,0
2017-10-25T03:12:35.999Z,0
2017-10-25T03:13:44.114Z,0
2017-10-25T03:14:52.166Z,0
2017-10-25T03:16:00.248Z,0
2017-10-25T03:17:08.335Z,0
2017-10-25T03:18:16.418Z,0
2017-10-25T03:19:24.506Z,0
2017-10-25T03:20:32.590Z,0
2017-10-25T03:21:40.678Z,0
2017-10-25T03:22:48.765Z,0
2017-10-25T03:23:56.868Z,0
2017-10-25T03:25:04.944Z,0
2017-10-25T03:26:13.028Z,0
2017-10-25T03:27:21.113Z,0
2017-10-25T03:28:29.204Z,0
2017-10-25T03:29:37.284Z,0
2017-10-25T03:30:45.371Z,0
2017-10-25T03:31:53.460Z,0
2017-10-25T03:33:01.540Z,0
2017-10-25T03:34:09.626Z,0
2017-10-25T03:35:17.710Z,0
2017-10-25T03:36:25.805Z,0
2017-10-25T03:37:33.880Z,0
2017-10-25T03:38:41.983Z,0
2017-10-25T03:39:50.070Z,0
2017-10-25T03:40:58.157Z,0
2017-10-25T03:42:06.246Z,0
2017-10-25T03:43:14.359Z,0
2017-10-25T03:44:22.429Z,0
2017-10-25T03:45:30.513Z,0
2017-10-25T03:46:38.604Z,0
2017-10-25T03:47:46.682Z,0
2017-10-25T03:48:54.771Z,0
2017-10-25T03:50:02.856Z,0
2017-10-25T03:51:11.011Z,0
2017-10-25T03:52:19.025Z,0
2017-10-25T03:53:27.109Z,0
2017-10-25T03:54:35.194Z,0
2017-10-25T03:55:43.555Z,0
2017-10-25T03:56:51.640Z,0
2017-10-25T03:57:59.723Z,0
2017-10-25T03:59:07.806Z,0
2017-10-25T04:00:15.893Z,0
2017-10-25T04:01:24.002Z,0
2017-10-25T04:02:32.072Z,0
2017-10-25T04:03:40.157Z,0
2017-10-25T04:04:48.244Z,0
2017-10-25T04:05:56.332Z,0
2017-10-25T04:07:04.413Z,0
2017-10-25T04:08:12.498Z,0
2017-10-25T04:09:20.583Z,0
2017-10-25T04:10:28.668Z,0
2017-10-25T04:11:36.754Z,0
2017-10-25T04:12:44.862Z,0
2017-10-25T04:13:52.967Z,0
2017-10-25T04:15:01.079Z,0
2017-10-25T04:16:09.124Z,0
2017-10-25T04:17:17.203Z,0
2017-10-25T04:18:25.288Z,0
2017-10-25T04:19:33.373Z,0
2017-10-25T04:20:41.474Z,0
2017-10-25T04:21:49.543Z,0
2017-10-25T04:22:57.626Z,0
2017-10-25T04:24:05.712Z,0
2017-10-25T04:25:13.799Z,0
2017-10-25T04:26:21.884Z,0
2017-10-25T04:27:29.984Z,0
2017-10-25T04:28:38.317Z,0
2017-10-25T04:29:46.141Z,0
2017-10-25T04:30:54.225Z,0
2017-10-25T04:32:02.311Z,0
2017-10-25T04:33:10.401Z,0
2017-10-25T04:34:18.480Z,0
2017-10-25T04:35:26.566Z,0
2017-10-25T04:36:35.358Z,0
2017-10-25T04:37:42.735Z,0
2017-10-25T04:38:50.820Z,0
2017-10-25T04:39:58.909Z,0
2017-10-25T04:41:07.136Z,0
2017-10-25T04:42:15.221Z,0
2017-10-25T04:43:23.318Z,0
2017-10-25T04:44:31.412Z,0
2017-10-25T04:45:39.508Z,0
2017-10-25T04:46:47.589Z,0
2017-10-25T04:47:55.667Z,0
2017-10-25T04:49:03.750Z,0
2017-10-25T04:50:11.834Z,0
2017-10-25T04:51:19.918Z,0
2017-10-25T04:52:28.004Z,0
2017-10-25T04:53:36.089Z,0
2017-10-25T04:54:44.182Z,0
2017-10-25T04:55:52.259Z,0
2017-10-25T04:57:00.523Z,0
2017-10-25T04:58:08.597Z,0
2017-10-25T04:59:16.681Z,0
2017-10-25T05:00:24.765Z,0
2017-10-25T05:01:32.987Z,0
2017-10-25T05:02:40.934Z,0
2017-10-25T05:03:49.020Z,0
2017-10-25T05:04:57.121Z,0
2017-10-25T05:06:05.207Z,0
2017-10-25T05:07:13.277Z,0
2017-10-25T05:08:21.360Z,0
2017-10-25T05:09:29.444Z,0
2017-10-25T05:10:37.529Z,0
2017-10-25T05:11:45.615Z,0
2017-10-25T05:12:53.699Z,0
2017-10-25T05:14:01.793Z,0
2017-10-25T05:15:09.894Z,0
2017-10-25T05:16:17.968Z,0
2017-10-25T05:17:26.051Z,0
2017-10-25T05:18:34.135Z,0
2017-10-25T05:19:42.763Z,0
2017-10-25T05:20:50.780Z,0
2017-10-25T05:21:58.969Z,0
2017-10-25T05:23:06.953Z,0
2017-10-25T05:24:15.034Z,0
2017-10-25T05:25:23.136Z,0
2017-10-25T05:26:31.219Z,0
2017-10-25T05:27:39.311Z,0
2017-10-25T05:28:47.392Z,0
2017-10-25T05:29:55.474Z,0
2017-10-25T05:31:03.559Z,0
2017-10-25T05:32:11.644Z,0
2017-10-25T05:33:19.727Z,0
2017-10-25T05:34:27.813Z,0
2017-10-25T05:35:35.897Z,0
2017-10-25T05:36:43.988Z,0
2017-10-25T05:37:52.067Z,0
2017-10-25T05:39:00.151Z,0
2017-10-25T05:40:08.243Z,0
2017-10-25T05:41:16.320Z,0
2017-10-25T05:42:24.406Z,0
2017-10-25T05:43:32.490Z,0
2017-10-25T05:44:40.573Z,0
2017-10-25T05:45:48.658Z,0
2017-10-25T05:46:56.745Z,0
2017-10-25T05:48:04.847Z,0
2017-10-25T05:49:12.946Z,0
2017-10-25T05:50:21.008Z,0
2017-10-25T05:51:29.090Z,0
2017-10-25T05:52:37.192Z,0
2017-10-25T05:53:45.277Z,0
2017-10-25T05:54:53.355Z,0
2017-10-25T05:56:01.440Z,0
2017-10-25T05:57:09.526Z,0
2017-10-25T05:58:17.609Z,0
2017-10-25T05:59:25.694Z,0
2017-10-25T06:00:33.778Z,0
2017-10-25T06:01:41.882Z,0
2017-10-25T06:02:50.055Z,0
2017-10-25T06:03:58.037Z,0
2017-10-25T06:05:06.189Z,0
2017-10-25T06:06:14.210Z,0
2017-10-25T06:07:22.408Z,4
2017-10-25T06:08:30.491Z,0
2017-10-25T06:09:38.578Z,0
2017-10-25T06:10:46.662Z,0
2017-10-25T06:11:54.745Z,0
2017-10-25T06:13:02.829Z,0
2017-10-25T06:14:10.916Z,0
2017-10-25T06:15:19.008Z,4
2017-10-25T06:16:27.084Z,4
2017-10-25T06:17:35.190Z,4
2017-10-25T06:18:43.254Z,4
2017-10-25T06:19:51.356Z,4
2017-10-25T06:20:59.487Z,4
2017-10-25T06:22:07.593Z,4
2017-10-25T06:23:15.678Z,4
2017-10-25T06:24:23.766Z,4
2017-10-25T06:25:31.847Z,0
2017-10-25T06:26:39.932Z,0
2017-10-25T06:27:48.018Z,0
2017-10-25T06:28:56.126Z,0
2017-10-25T06:30:04.186Z,0
2017-10-25T06:31:12.271Z,4
2017-10-25T06:32:20.354Z,4
2017-10-25T06:33:28.441Z,4
2017-10-25T06:34:36.526Z,4
2017-10-25T06:35:44.609Z,0
2017-10-25T06:36:52.693Z,0
2017-10-25T06:38:00.779Z,4
2017-10-25T06:39:08.863Z,4
2017-10-25T06:40:16.947Z,4
2017-10-25T06:41:25.030Z,4
2017-10-25T06:42:33.116Z,4
2017-10-25T06:43:41.313Z,4
2017-10-25T06:44:49.311Z,4
2017-10-25T06:45:57.401Z,8
2017-10-25T06:47:05.481Z,8
2017-10-25T06:48:13.567Z,8
2017-10-25T06:49:21.649Z,8
2017-10-25T06:50:29.735Z,8
2017-10-25T06:51:37.819Z,8
2017-10-25T06:52:45.906Z,4
2017-10-25T06:53:54.007Z,4
2017-10-25T06:55:02.074Z,4
2017-10-25T06:56:10.167Z,4
2017-10-25T06:57:18.252Z,4
2017-10-25T06:58:26.343Z,4
2017-10-25T06:59:34.421Z,4
2017-10-25T07:00:42.504Z,4
2017-10-25T07:01:50.589Z,4
2017-10-25T07:02:58.672Z,8
2017-10-25T07:04:06.767Z,4
2017-10-25T07:05:14.846Z,8
2017-10-25T07:06:22.947Z,4
2017-10-25T07:07:31.027Z,8
2017-10-25T07:08:39.112Z,8
2017-10-25T07:09:47.208Z,4
2017-10-25T07:10:55.280Z,8
2017-10-25T07:12:03.379Z,8
2017-10-25T07:13:11.456Z,8
2017-10-25T07:14:19.540Z,8
2017-10-25T07:15:27.626Z,8
2017-10-25T07:16:35.708Z,8
2017-10-25T07:17:43.795Z,8
2017-10-25T07:18:51.878Z,8
2017-10-25T07:19:59.963Z,8
2017-10-25T07:21:08.048Z,8
2017-10-25T07:22:16.137Z,8
2017-10-25T07:23:24.225Z,12
2017-10-25T07:24:32.311Z,12
2017-10-25T07:25:40.394Z,12
2017-10-25T07:26:48.481Z,8
2017-10-25T07:27:56.563Z,12
2017-10-25T07:29:04.649Z,12
2017-10-25T07:30:12.732Z,12
2017-10-25T07:31:20.828Z,16
2017-10-25T07:32:28.927Z,16
2017-10-25T07:33:37.030Z,12
2017-10-25T07:34:45.155Z,16
2017-10-25T07:35:53.241Z,16
2017-10-25T07:37:01.332Z,16
2017-10-25T07:38:09.438Z,16
2017-10-25T07:39:17.522Z,20
2017-10-25T07:40:25.605Z,20
2017-10-25T07:41:33.695Z,20
2017-10-25T07:42:41.776Z,24
2017-10-25T07:43:49.860Z,20
2017-10-25T07:44:57.945Z,20
2017-10-25T07:46:06.026Z,20
2017-10-25T07:47:14.118Z,20
2017-10-25T07:48:22.203Z,24
2017-10-25T07:49:30.282Z,24
2017-10-25T07:50:38.388Z,24
2017-10-25T07:51:46.451Z,28
2017-10-25T07:52:54.536Z,24
2017-10-25T07:54:02.624Z,32
2017-10-25T07:55:10.704Z,28
2017-10-25T07:56:18.788Z,24
2017-10-25T07:57:26.872Z,24
2017-10-25T07:58:34.956Z,24
2017-10-25T07:59:43.041Z,20
2017-10-25T08:00:51.126Z,24
2017-10-25T08:01:59.211Z,24
2017-10-25T08:03:07.301Z,24
2017-10-25T08:04:15.378Z,24
2017-10-25T08:05:23.464Z,24
2017-10-25T08:06:31.547Z,24
2017-10-25T08:07:39.636Z,24
2017-10-25T08:08:47.721Z,24
2017-10-25T08:09:55.810Z,24
2017-10-25T08:11:03.884Z,28
2017-10-25T08:12:11.970Z,24
2017-10-25T08:13:20.055Z,24
2017-10-25T08:14:28.140Z,28
2017-10-25T08:15:36.220Z,24
2017-10-25T08:16:44.324Z,32
2017-10-25T08:17:52.413Z,28
2017-10-25T08:19:00.492Z,24
2017-10-25T08:20:08.577Z,24
2017-10-25T08:21:16.661Z,24
2017-10-25T08:22:24.742Z,24
2017-10-25T08:23:32.828Z,24
2017-10-25T08:24:40.913Z,20
2017-10-25T08:25:49.007Z,24
2017-10-25T08:26:57.096Z,20
2017-10-25T08:28:05.185Z,20
2017-10-25T08:29:13.269Z,20
2017-10-25T08:30:21.355Z,20
2017-10-25T08:31:29.445Z,20
2017-10-25T08:32:37.524Z,20
2017-10-25T08:33:45.609Z,24
2017-10-25T08:34:53.769Z,24
2017-10-25T08:36:01.777Z,24
2017-10-25T08:37:09.882Z,20
2017-10-25T08:38:17.966Z,24
2017-10-25T08:39:26.039Z,24
2017-10-25T08:40:34.131Z,28
2017-10-25T08:41:42.218Z,28
2017-10-25T08:42:50.303Z,24
2017-10-25T08:43:58.390Z,28
2017-10-25T08:45:06.500Z,28
2017-10-25T08:46:14.567Z,36
2017-10-25T08:47:22.651Z,36
2017-10-25T08:48:30.740Z,40
2017-10-25T08:49:38.842Z,40
2017-10-25T08:50:46.924Z,40
2017-10-25T08:51:55.005Z,40
2017-10-25T08:53:03.094Z,36
2017-10-25T08:54:11.175Z,36
2017-10-25T08:55:19.258Z,40
2017-10-25T08:56:27.346Z,36
2017-10-25T08:57:35.427Z,36
2017-10-25T08:58:43.510Z,40
2017-10-25T08:59:51.597Z,40
2017-10-25T09:00:59.678Z,40
2017-10-25T09:02:07.763Z,40
2017-10-25T09:03:15.847Z,40
2017-10-25T09:04:23.930Z,36
2017-10-25T09:05:32.014Z,40
2017-10-25T09:06:40.098Z,40
2017-10-25T09:07:48.187Z,44
2017-10-25T09:08:56.270Z,40
2017-10-25T09:10:04.354Z,36
2017-10-25T09:11:12.437Z,40
2017-10-25T09:12:20.523Z,40
2017-10-25T09:13:28.606Z,44
2017-10-25T09:14:36.691Z,44
2017-10-25T09:15:44.775Z,44
2017-10-25T09:16:52.856Z,40
2017-10-25T09:18:00.947Z,40
2017-10-25T09:19:09.046Z,40
2017-10-25T09:20:17.138Z,40
2017-10-25T09:21:25.197Z,40
2017-10-25T09:22:33.281Z,36
2017-10-25T09:23:41.365Z,40
2017-10-25T09:24:49.469Z,36
2017-10-25T09:25:57.555Z,36
2017-10-25T09:27:05.639Z,36
2017-10-25T09:28:13.722Z,36
2017-10-25T09:29:21.807Z,36
2017-10-25T09:30:29.892Z,36
2017-10-25T09:31:38.026Z,36
2017-10-25T09:32:46.066Z,36
2017-10-25T09:33:54.173Z,36
2017-10-25T09:35:02.242Z,36
2017-10-25T09:36:10.325Z,36
2017-10-25T09:37:18.408Z,36
2017-10-25T09:38:26.493Z,36
2017-10-25T09:39:34.578Z,36
2017-10-25T09:40:42.662Z,36
2017-10-25T09:41:50.752Z,36
2017-10-25T09:42:58.832Z,40
2017-10-25T09:44:06.934Z,32
2017-10-25T09:45:15.007Z,36
2017-10-25T09:46:23.093Z,36
2017-10-25T09:47:31.171Z,36
2017-10-25T09:48:39.255Z,36
2017-10-25T09:49:47.358Z,36
2017-10-25T09:50:55.423Z,36
2017-10-25T09:52:03.510Z,36
2017-10-25T09:53:11.604Z,40
2017-10-25T09:54:19.680Z,40
2017-10-25T09:55:27.762Z,44
2017-10-25T09:56:35.855Z,44
2017-10-25T09:57:43.934Z,48
2017-10-25T09:58:52.019Z,48
2017-10-25T10:00:00.106Z,52
2017-10-25T10:01:08.202Z,52
2017-10-25T10:02:16.268Z,52
2017-10-25T10:03:24.354Z,48
2017-10-25T10:04:32.459Z,56
2017-10-25T10:05:40.541Z,60
2017-10-25T10:06:48.627Z,52
2017-10-25T10:07:56.760Z,56
2017-10-25T10:09:04.803Z,52
2017-10-25T10:10:12.888Z,52
2017-10-25T10:11:20.971Z,52
2017-10-25T10:12:29.072Z,48
2017-10-25T10:13:37.233Z,40
2017-10-25T10:14:45.233Z,44
2017-10-25T10:15:53.333Z,32
2017-10-25T10:17:01.411Z,24
2017-10-25T10:18:09.495Z,24
2017-10-25T10:19:17.578Z,24
2017-10-25T10:20:25.666Z,20
2017-10-25T10:21:33.747Z,24
2017-10-25T10:22:41.834Z,24
2017-10-25T10:23:49.924Z,28
2017-10-25T10:24:58.004Z,28
2017-10-25T10:26:06.089Z,24
2017-10-25T10:27:14.171Z,24
2017-10-25T10:28:22.273Z,24
2017-10-25T10:29:30.340Z,24
2017-10-25T10:30:38.425Z,32
2017-10-25T10:31:46.510Z,40
2017-10-25T10:32:54.598Z,40
2017-10-25T10:34:02.677Z,40
2017-10-25T10:35:10.763Z,40
2017-10-25T10:36:18.853Z,36
2017-10-25T10:37:26.933Z,40
2017-10-25T10:38:35.022Z,40
2017-10-25T10:39:43.108Z,40
2017-10-25T10:40:51.195Z,36
2017-10-25T10:41:59.280Z,36
2017-10-25T10:43:07.362Z,36
2017-10-25T10:44:15.445Z,40
2017-10-25T10:45:23.532Z,40
2017-10-25T10:46:31.613Z,40
2017-10-25T10:47:39.705Z,40
2017-10-25T10:48:47.787Z,36
2017-10-25T10:49:55.868Z,32
2017-10-25T10:51:03.972Z,36
2017-10-25T10:52:12.052Z,40
2017-10-25T10:53:20.127Z,40
2017-10-25T10:54:28.211Z,36
2017-10-25T10:55:36.289Z,36
2017-10-25T10:56:44.376Z,40
2017-10-25T10:57:52.460Z,40
2017-10-25T10:59:00.550Z,36
2017-10-25T11:00:08.633Z,36
2017-10-25T11:01:16.718Z,40
2017-10-25T11:02:24.802Z,36
2017-10-25T11:03:32.890Z,36
2017-10-25T11:04:40.970Z,36
2017-10-25T11:05:49.057Z,36
2017-10-25T11:06:57.138Z,36
2017-10-25T11:08:05.226Z,36
2017-10-25T11:09:13.314Z,36
2017-10-25T11:10:21.463Z,32
2017-10-25T11:11:29.548Z,36
2017-10-25T11:12:37.639Z,32
2017-10-25T11:13:45.717Z,32
2017-10-25T11:14:53.810Z,36
2017-10-25T11:16:02.221Z,32
2017-10-25T11:17:10.070Z,32
2017-10-25T11:18:18.059Z,32
2017-10-25T11:19:26.141Z,28
2017-10-25T11:20:34.245Z,36
2017-10-25T11:21:42.311Z,36
2017-10-25T11:22:50.395Z,36
2017-10-25T11:23:58.484Z,32
2017-10-25T11:25:06.571Z,32
2017-10-25T11:26:14.663Z,32
2017-10-25T11:27:22.733Z,32
2017-10-25T11:28:30.819Z,32
2017-10-25T11:29:38.904Z,32
2017-10-25T11:30:46.989Z,36
2017-10-25T11:31:55.076Z,32
2017-10-25T11:33:03.162Z,32
2017-10-25T11:34:11.244Z,32
2017-10-25T11:35:19.330Z,32
2017-10-25T11:36:27.414Z,32
2017-10-25T11:37:35.494Z,32
2017-10-25T11:38:43.580Z,32
2017-10-25T11:39:51.664Z,32
2017-10-25T11:40:59.749Z,32
2017-10-25T11:42:07.836Z,32
2017-10-25T11:43:15.918Z,32
2017-10-25T11:44:24.007Z,32
2017-10-25T11:45:32.087Z,32
2017-10-25T11:46:40.181Z,36
2017-10-25T11:47:48.267Z,36
2017-10-25T11:48:56.355Z,36
2017-10-25T11:50:04.438Z,36
2017-10-25T11:51:12.522Z,40
2017-10-25T11:52:20.607Z,36
2017-10-25T11:53:28.690Z,40
2017-10-25T11:54:36.776Z,36
2017-10-25T11:55:44.860Z,36
2017-10-25T11:56:52.950Z,32
2017-10-25T11:58:01.033Z,32
2017-10-25T11:59:09.119Z,32
2017-10-25T12:00:17.199Z,32
2017-10-25T12:01:25.286Z,32
2017-10-25T12:02:33.370Z,32
2017-10-25T12:03:41.538Z,32
2017-10-25T12:04:49.536Z,32
2017-10-25T12:05:57.625Z,32
2017-10-25T12:07:05.705Z,32
2017-10-25T12:08:13.792Z,32
2017-10-25T12:09:21.875Z,32
2017-10-25T12:10:29.962Z,32
2017-10-25T12:11:38.050Z,24
2017-10-25T12:12:46.135Z,32
2017-10-25T12:13:54.225Z,32
2017-10-25T12:15:02.544Z,36
2017-10-25T12:16:10.590Z,36
2017-10-25T12:17:18.672Z,36
2017-10-25T12:18:26.758Z,36
2017-10-25T12:19:34.842Z,36
2017-10-25T12:20:42.927Z,36
2017-10-25T12:21:51.015Z,40
2017-10-25T12:22:59.098Z,44
2017-10-25T12:24:07.187Z,44
2017-10-25T12:25:15.271Z,44
2017-10-25T12:26:23.514Z,44
2017-10-25T12:27:31.597Z,40
2017-10-25T12:28:39.678Z,44
2017-10-25T12:29:47.764Z,44
2017-10-25T12:30:55.847Z,36
2017-10-25T12:32:03.932Z,28
2017-10-25T12:33:12.016Z,40
2017-10-25T12:34:20.101Z,40
2017-10-25T12:35:28.187Z,40
2017-10-25T12:36:36.274Z,40
2017-10-25T12:37:44.363Z,40
2017-10-25T12:38:52.440Z,36
2017-10-25T12:40:00.533Z,36
2017-10-25T12:41:08.625Z,40
2017-10-25T12:42:16.703Z,40
2017-10-25T12:43:24.785Z,44
2017-10-25T12:44:32.868Z,44
2017-10-25T12:45:40.952Z,44
2017-10-25T12:46:49.037Z,44
2017-10-25T12:47:57.131Z,44
2017-10-25T12:49:05.220Z,40
2017-10-25T12:50:13.298Z,40
2017-10-25T12:51:21.384Z,40
2017-10-25T12:52:29.469Z,20
2017-10-25T12:53:37.555Z,20
2017-10-25T12:54:45.640Z,20
2017-10-25T12:55:53.722Z,20
2017-10-25T12:57:01.806Z,20
2017-10-25T12:58:09.894Z,24
2017-10-25T12:59:17.985Z,24
2017-10-25T13:00:26.073Z,28
2017-10-25T13:01:34.151Z,36
2017-10-25T13:02:42.321Z,32
2017-10-25T13:03:50.319Z,32
2017-10-25T13:04:58.404Z,28
2017-10-25T13:06:06.489Z,28
2017-10-25T13:07:14.573Z,36
2017-10-25T13:08:22.660Z,24
2017-10-25T13:09:30.746Z,28
2017-10-25T13:10:38.829Z,24
2017-10-25T13:11:46.919Z,24
2017-10-25T13:12:54.998Z,20
2017-10-25T13:14:03.102Z,24
2017-10-25T13:15:11.169Z,24
2017-10-25T13:16:19.250Z,20
2017-10-25T13:17:27.336Z,20
2017-10-25T13:18:35.422Z,20
2017-10-25T13:19:43.506Z,20
2017-10-25T13:20:51.591Z,20
2017-10-25T13:21:59.677Z,20
2017-10-25T13:23:07.759Z,20
2017-10-25T13:24:15.844Z,28
2017-10-25T13:25:23.931Z,20
2017-10-25T13:26:32.013Z,20
2017-10-25T13:27:40.097Z,24
2017-10-25T13:28:48.182Z,32
2017-10-25T13:29:56.267Z,36
2017-10-25T13:31:04.358Z,28
2017-10-25T13:32:12.436Z,44
2017-10-25T13:33:20.520Z,48
2017-10-25T13:34:28.604Z,40
2017-10-25T13:35:36.689Z,36
2017-10-25T13:36:44.773Z,28
2017-10-25T13:37:52.858Z,32
2017-10-25T13:39:01.076Z,32
2017-10-25T13:40:09.029Z,44
2017-10-25T13:41:17.115Z,48
2017-10-25T13:42:25.207Z,40
2017-10-25T13:43:33.281Z,32
2017-10-25T13:44:41.377Z,32
2017-10-25T13:45:49.449Z,36
2017-10-25T13:46:57.536Z,28
2017-10-25T13:48:05.620Z,32
2017-10-25T13:49:13.706Z,20
2017-10-25T13:50:21.791Z,20
2017-10-25T13:51:29.876Z,16
2017-10-25T13:52:37.968Z,16
2017-10-25T13:53:46.052Z,20
2017-10-25T13:54:54.133Z,16
2017-10-25T13:56:03.040Z,20
2017-10-25T13:57:11.126Z,20
2017-10-25T13:58:19.216Z,20
2017-10-25T13:59:27.292Z,24
2017-10-25T14:00:35.382Z,20
2017-10-25T14:01:43.461Z,16
2017-10-25T14:02:51.546Z,20
2017-10-25T14:03:59.638Z,20
2017-10-25T14:05:07.715Z,24
2017-10-25T14:06:15.798Z,60
2017-10-25T14:07:23.885Z,40
2017-10-25T14:08:31.970Z,28
2017-10-25T14:09:40.073Z,24
2017-10-25T14:10:48.137Z,24
2017-10-25T14:11:56.222Z,24
2017-10-25T14:13:04.306Z,20
2017-10-25T14:14:12.392Z,24
2017-10-25T14:15:20.488Z,20
2017-10-25T14:16:28.578Z,28
2017-10-25T14:17:36.647Z,28
2017-10-25T14:18:44.769Z,24
2017-10-25T14:19:52.814Z,20
2017-10-25T14:21:00.897Z,16
2017-10-25T14:22:09.011Z,16
2017-10-25T14:23:17.068Z,12
2017-10-25T14:24:25.163Z,16
2017-10-25T14:25:33.249Z,16
2017-10-25T14:26:41.331Z,16
2017-10-25T14:27:49.415Z,16
2017-10-25T14:28:57.499Z,16
2017-10-25T14:30:05.588Z,12
2017-10-25T14:31:13.669Z,12
2017-10-25T14:32:21.756Z,12
2017-10-25T14:33:29.836Z,12
2017-10-25T14:34:37.922Z,12
2017-10-25T14:35:46.009Z,12
2017-10-25T14:36:54.096Z,12
2017-10-25T14:38:02.176Z,16
2017-10-25T14:39:10.260Z,12
2017-10-25T14:40:18.363Z,12
2017-10-25T14:41:26.431Z,12
2017-10-25T14:42:34.516Z,8
2017-10-25T14:43:42.599Z,8
2017-10-25T14:44:50.684Z,8
2017-10-25T14:45:58.770Z,8
2017-10-25T14:47:06.853Z,8
2017-10-25T14:48:14.936Z,12
2017-10-25T14:49:23.026Z,8
2017-10-25T14:50:31.105Z,8
2017-10-25T14:51:39.193Z,8
2017-10-25T14:52:47.273Z,8
2017-10-25T14:53:55.359Z,12
2017-10-25T14:55:03.444Z,12
2017-10-25T14:56:11.528Z,8
2017-10-25T14:57:19.611Z,8
2017-10-25T14:58:27.695Z,8
2017-10-25T14:59:35.779Z,12
2017-10-25T15:00:43.863Z,8
2017-10-25T15:01:51.948Z,8
2017-10-25T15:03:00.044Z,8
2017-10-25T15:04:08.137Z,4
2017-10-25T15:05:16.227Z,4
2017-10-25T15:06:24.288Z,4
2017-10-25T15:07:32.387Z,4
2017-10-25T15:08:40.471Z,8
2017-10-25T15:09:48.554Z,8
2017-10-25T15:10:56.643Z,8
2017-10-25T15:12:04.726Z,4
2017-10-25T15:13:12.811Z,8
2017-10-25T15:14:20.898Z,8
2017-10-25T15:15:28.996Z,8
2017-10-25T15:16:37.061Z,8
2017-10-25T15:17:45.150Z,4
2017-10-25T15:18:53.230Z,4
2017-10-25T15:20:01.313Z,4
2017-10-25T15:21:09.401Z,8
2017-10-25T15:22:17.485Z,4
2017-10-25T15:23:25.571Z,4
2017-10-25T15:24:33.653Z,4
2017-10-25T15:25:41.737Z,4
2017-10-25T15:26:49.828Z,4
2017-10-25T15:27:57.913Z,4
2017-10-25T15:29:05.995Z,4
2017-10-25T15:30:14.079Z,4
2017-10-25T15:31:22.165Z,4
2017-10-25T15:32:30.249Z,4
2017-10-25T15:33:38.351Z,4
2017-10-25T15:34:46.416Z,4
2017-10-25T15:35:54.501Z,4
2017-10-25T15:37:02.587Z,4
2017-10-25T15:38:10.671Z,4
2017-10-25T15:39:18.755Z,4
2017-10-25T15:40:26.852Z,0
2017-10-25T15:41:34.941Z,4
2017-10-25T15:42:43.015Z,4
2017-10-25T15:43:51.092Z,4
2017-10-25T15:44:59.180Z,4
2017-10-25T15:46:07.265Z,4
2017-10-25T15:47:15.361Z,0
2017-10-25T15:48:23.444Z,0
2017-10-25T15:49:31.528Z,4
2017-10-25T15:50:39.611Z,4
2017-10-25T15:51:47.697Z,4
2017-10-25T15:52:55.780Z,4
2017-10-25T15:54:03.865Z,4
2017-10-25T15:55:11.950Z,0
2017-10-25T15:56:20.041Z,0
2017-10-25T15:57:28.131Z,0
2017-10-25T15:58:36.215Z,0
2017-10-25T15:59:44.299Z,0
2017-10-25T16:00:52.382Z,0
2017-10-25T16:02:00.470Z,4
2017-10-25T16:03:08.554Z,4
2017-10-25T16:04:16.640Z,4
2017-10-25T16:05:24.732Z,4
2017-10-25T16:06:32.807Z,0
2017-10-25T16:07:40.898Z,0
2017-10-25T16:08:48.979Z,0
2017-10-25T16:09:57.062Z,0
2017-10-25T16:11:05.146Z,0
2017-10-25T16:12:13.230Z,0
2017-10-25T16:13:21.312Z,0
2017-10-25T16:14:29.401Z,0
2017-10-25T16:15:37.499Z,0
2017-10-25T16:16:45.567Z,0
2017-10-25T16:17:53.651Z,0
2017-10-25T16:19:01.733Z,0
2017-10-25T16:20:09.820Z,0
2017-10-25T16:21:17.907Z,0
2017-10-25T16:22:25.993Z,0
2017-10-25T16:23:34.093Z,0
2017-10-25T16:24:42.171Z,0
2017-10-25T16:25:50.265Z,0
2017-10-25T16:26:58.342Z,0
2017-10-25T16:28:06.429Z,0
2017-10-25T16:29:14.516Z,0
2017-10-25T16:30:22.597Z,0